Time;durP1;ratioP1;P1;durP2;ratioP2;P2;SDS_P1;SDS_P2;PMS_P1;PMS_P2;Temp;Humidity;BMP_temperature;BMP_pressure;BME280_temperature;BME280_humidity;BME280_pressure;Samples;Min_cycle;Max_cycle;Signal;HPM_P1;HPM_P2
2021/12/23 00:01:45;;;;;;;;;104.50;79.50;;;;;0.99;56.09;100564.31;5123988;27;9611;-75
2021/12/23 00:04:14;;;;;;;;;104.00;78.00;;;;;0.95;55.74;100566.69;5121878;27;10271;-75
2021/12/23 00:06:45;;;;;;;;;94.50;74.25;;;;;0.91;55.65;100574.16;5071822;27;10251;-75
2021/12/23 00:09:13;;;;;;;;;95.00;74.50;;;;;0.89;56.04;100562.88;5126667;27;9839;-76
2021/12/23 00:11:42;;;;;;;;;107.75;85.75;;;;;0.88;56.71;100561.13;5124933;27;9767;-75
2021/12/23 00:14:11;;;;;;;;;100.25;77.00;;;;;0.87;57.03;100562.84;5098942;28;10712;-74
2021/12/23 00:16:44;;;;;;;;;111.00;95.75;;;;;0.87;57.22;100570.53;5067685;28;10612;-76
2021/12/23 00:19:22;;;;;;;;;113.50;96.50;;;;;0.91;57.12;100557.06;5067462;28;11329;-76
2021/12/23 00:24:40;;;;;;;;;104.50;80.50;;;;;0.93;57.27;100552.00;5084650;28;10455;-76
2021/12/23 00:27:09;;;;;;;;;98.00;74.00;;;;;0.92;56.76;100553.66;5084297;28;11964;-75
2021/12/23 00:29:40;;;;;;;;;95.00;74.33;;;;;0.95;56.83;100546.16;5084403;28;9736;-74
2021/12/23 00:32:10;;;;;;;;;82.33;64.00;;;;;0.91;56.79;100545.91;5069480;28;9403;-76
2021/12/23 00:34:39;;;;;;;;;79.00;63.00;;;;;0.81;57.17;100547.06;5070874;28;9391;-76
2021/12/23 00:37:11;;;;;;;;;69.00;56.50;;;;;0.80;57.10;100545.31;5054216;28;9080;-74
2021/12/23 00:39:40;;;;;;;;;59.75;51.75;;;;;0.82;56.82;100535.13;5054049;28;8935;-75
2021/12/23 00:42:09;;;;;;;;;61.00;49.25;;;;;0.77;56.98;100533.19;5070820;28;9650;-75
2021/12/23 00:44:45;;;;;;;;;68.25;57.50;;;;;0.80;57.15;100526.47;5092366;27;8989;-75
2021/12/23 00:47:14;;;;;;;;;62.50;52.50;;;;;0.77;56.99;100528.03;5109258;28;8871;-76
2021/12/23 00:49:42;;;;;;;;;70.00;54.25;;;;;0.73;57.27;100526.13;5075308;27;9735;-75
2021/12/23 00:52:14;;;;;;;;;66.00;53.00;;;;;0.68;57.32;100517.31;5129768;27;8835;-75
2021/12/23 00:54:43;;;;;;;;;57.75;48.25;;;;;0.64;57.02;100517.91;5127855;27;8853;-75
2021/12/23 00:57:11;;;;;;;;;49.00;44.50;;;;;0.62;56.95;100518.63;5116774;27;8857;-75
2021/12/23 00:59:40;;;;;;;;;47.50;42.25;;;;;0.63;56.29;100517.84;5112457;27;8858;-76
2021/12/23 01:02:11;;;;;;;;;40.75;32.50;;;;;0.67;56.23;100514.66;5131229;27;8877;-76
2021/12/23 01:04:40;;;;;;;;;49.00;45.25;;;;;0.68;56.42;100509.59;5128944;27;8854;-74
2021/12/23 01:07:08;;;;;;;;;43.50;39.25;;;;;0.67;55.95;100523.22;5121168;27;8879;-75
2021/12/23 01:09:38;;;;;;;;;41.75;36.00;;;;;0.69;55.75;100521.63;5120601;27;8853;-74
2021/12/23 01:12:10;;;;;;;;;47.00;37.75;;;;;0.68;55.85;100506.13;5108609;28;8888;-75
2021/12/23 01:14:43;;;;;;;;;45.25;38.75;;;;;0.66;56.26;100513.78;5123247;27;8865;-75
2021/12/23 01:17:29;;;;;;;;;42.25;34.00;;;;;0.61;56.49;100502.34;5110452;28;8849;-76
2021/12/23 01:20:00;;;;;;;;;42.25;33.50;;;;;0.66;56.29;100506.06;5128128;27;8858;-75
2021/12/23 01:22:29;;;;;;;;;38.50;33.00;;;;;0.71;56.42;100501.16;5112548;27;8862;-77
2021/12/23 01:24:59;;;;;;;;;40.25;36.25;;;;;0.73;56.47;100503.00;5094061;27;8889;-76
2021/12/23 01:27:27;;;;;;;;;43.75;39.50;;;;;0.75;56.42;100498.84;5126095;27;8936;-76
2021/12/23 01:30:01;;;;;;;;;41.00;39.00;;;;;0.79;56.32;100502.47;5118285;27;8896;-74
2021/12/23 01:32:30;;;;;;;;;52.25;47.00;;;;;0.87;56.11;100503.78;5108727;28;8939;-76
2021/12/23 01:34:58;;;;;;;;;48.75;45.00;;;;;0.80;56.13;100505.94;5121890;27;8886;-76
2021/12/23 01:37:27;;;;;;;;;44.75;38.75;;;;;0.86;56.12;100504.56;5116579;27;8957;-74
2021/12/23 01:39:56;;;;;;;;;52.00;45.00;;;;;0.78;56.16;100498.16;5077626;27;8897;-76
2021/12/23 01:42:26;;;;;;;;;54.50;46.25;;;;;0.75;56.62;100500.53;5074703;28;10076;-75
2021/12/23 01:44:54;;;;;;;;;50.00;42.50;;;;;0.75;56.40;100500.53;5111778;27;8866;-75
2021/12/23 01:47:23;;;;;;;;;53.00;45.50;;;;;0.67;56.70;100499.25;5111273;27;8891;-77
2021/12/23 01:49:53;;;;;;;;;46.25;40.75;;;;;0.62;56.75;100503.22;5102087;27;8881;-75
2021/12/23 01:52:21;;;;;;;;;52.50;45.00;;;;;0.62;57.12;100501.53;5107452;28;8873;-74
2021/12/23 01:54:50;;;;;;;;;52.25;44.50;;;;;0.61;57.02;100501.50;5119282;27;8823;-73
2021/12/23 01:57:19;;;;;;;;;53.00;46.50;;;;;0.61;57.33;100498.91;5110567;27;9631;-75
2021/12/23 01:59:50;;;;;;;;;53.75;42.25;;;;;0.53;57.21;100501.94;5107901;28;8864;-75
2021/12/23 02:02:21;;;;;;;;;46.00;43.25;;;;;0.58;57.04;100491.91;5126709;27;8847;-74
2021/12/23 02:04:50;;;;;;;;;47.25;39.25;;;;;0.67;57.13;100492.41;5108488;28;8873;-75
2021/12/23 02:07:18;;;;;;;;;46.25;43.25;;;;;0.75;56.67;100493.72;5104467;28;8968;-75
2021/12/23 02:09:47;;;;;;;;;62.50;53.25;;;;;0.73;56.48;100490.19;5107728;28;8842;-74
2021/12/23 02:12:16;;;;;;;;;51.00;45.00;;;;;0.73;56.20;100477.34;5055460;27;10017;-75
2021/12/23 02:14:45;;;;;;;;;57.00;48.00;;;;;0.62;56.44;100483.56;5129567;27;8949;-76
2021/12/23 02:17:15;;;;;;;;;56.75;48.00;;;;;0.68;55.78;100485.59;5129953;27;8862;-75
2021/12/23 02:19:44;;;;;;;;;60.50;52.00;;;;;0.71;56.04;100489.22;5128084;27;8854;-74
2021/12/23 02:22:13;;;;;;;;;64.50;48.50;;;;;0.77;55.96;100483.53;5125105;27;8865;-75
2021/12/23 02:24:42;;;;;;;;;57.75;45.00;;;;;0.67;55.44;100478.72;5108901;27;9082;-75
2021/12/23 02:27:11;;;;;;;;;75.25;58.00;;;;;0.70;55.93;100474.63;5109517;27;8861;-74
2021/12/23 02:29:39;;;;;;;;;72.00;55.00;;;;;0.72;56.03;100469.59;5121511;27;8863;-74
2021/12/23 02:32:09;;;;;;;;;69.75;55.75;;;;;0.74;55.66;100463.72;5100352;27;8855;-75
2021/12/23 02:34:38;;;;;;;;;40.75;33.50;;;;;0.70;55.58;100466.03;5124612;27;8997;-75
2021/12/23 02:37:09;;;;;;;;;42.75;41.50;;;;;0.67;55.49;100461.63;5113638;27;8939;-73
2021/12/23 02:39:41;;;;;;;;;42.75;39.75;;;;;0.67;55.79;100459.06;5123819;27;8900;-75
2021/12/23 02:42:10;;;;;;;;;42.50;36.75;;;;;0.63;55.42;100459.69;5088669;28;9003;-74
2021/12/23 02:44:39;;;;;;;;;35.25;32.25;;;;;0.61;56.12;100455.28;5110317;27;8869;-74
2021/12/23 02:47:08;;;;;;;;;44.00;37.00;;;;;0.56;56.28;100455.91;5110575;27;8886;-77
2021/12/23 02:49:36;;;;;;;;;33.50;33.00;;;;;0.54;56.26;100456.63;5127876;27;8896;-74
2021/12/23 02:52:06;;;;;;;;;35.75;35.00;;;;;0.57;56.64;100452.53;5128029;27;8926;-74
2021/12/23 02:54:35;;;;;;;;;44.50;40.50;;;;;0.56;56.26;100455.91;5110584;27;8887;-75
2021/12/23 02:57:05;;;;;;;;;55.25;45.75;;;;;0.62;56.28;100457.91;5118483;27;8869;-75
2021/12/23 02:59:34;;;;;;;;;65.25;53.00;;;;;0.58;56.29;100450.84;5103982;28;8841;-75
2021/12/23 03:02:03;;;;;;;;;71.75;58.75;;;;;0.41;57.33;100454.19;5108480;28;8976;-75
2021/12/23 03:04:33;;;;;;;;;42.50;41.00;;;;;0.37;57.83;100451.44;5108097;28;8845;-75
2021/12/23 03:07:01;;;;;;;;;46.25;43.75;;;;;0.49;57.04;100460.63;5120869;27;9031;-75
2021/12/23 03:09:30;;;;;;;;;51.25;45.25;;;;;0.43;57.60;100457.72;5124073;27;9657;-74
2021/12/23 03:11:58;;;;;;;;;42.00;38.50;;;;;0.47;57.37;100447.69;5072430;28;8872;-75
2021/12/23 03:14:29;;;;;;;;;25.00;20.75;;;;;0.55;57.51;100440.44;5108313;28;8918;-74
2021/12/23 03:16:57;;;;;;;;;36.00;34.50;;;;;0.56;57.44;100442.19;5096323;27;8851;-75
2021/12/23 03:19:26;;;;;;;;;46.25;40.00;;;;;0.56;57.71;100432.81;5092747;27;9014;-73
2021/12/23 03:21:54;;;;;;;;;40.00;36.25;;;;;0.60;57.45;100436.41;5123775;28;9649;-74
2021/12/23 03:24:23;;;;;;;;;30.75;28.75;;;;;0.59;57.02;100429.53;5118970;27;8953;-75
2021/12/23 03:26:52;;;;;;;;;32.50;28.00;;;;;0.59;57.80;100426.97;5108817;27;8957;-75
2021/12/23 03:29:20;;;;;;;;;31.75;29.75;;;;;0.65;56.88;100429.84;5090554;27;8829;-77
2021/12/23 03:31:50;;;;;;;;;42.25;35.50;;;;;0.68;57.00;100421.44;5109447;27;8929;-75
2021/12/23 03:34:19;;;;;;;;;31.75;29.00;;;;;0.69;57.52;100423.22;5101711;28;8890;-74
2021/12/23 03:36:48;;;;;;;;;44.00;40.75;;;;;0.76;57.19;100426.19;5041284;28;9199;-76
2021/12/23 03:39:19;;;;;;;;;41.25;34.50;;;;;0.78;57.23;100419.44;5024452;28;8907;-74
2021/12/23 03:41:49;;;;;;;;;37.50;33.25;;;;;0.73;57.51;100418.31;5024418;28;9779;-75
2021/12/23 03:44:17;;;;;;;;;35.50;27.25;;;;;0.75;57.25;100418.38;5008219;28;9697;-74
2021/12/23 03:46:46;;;;;;;;;14.25;6.75;;;;;0.77;57.33;100416.78;5024719;28;8902;-75
2021/12/23 03:49:16;;;;;;;;;39.75;33.50;;;;;0.72;57.77;100407.97;5024868;28;8970;-75
2021/12/23 03:51:45;;;;;;;;;44.00;36.67;;;;;0.70;57.80;100414.69;5024639;28;8903;-73
2021/12/23 03:54:13;;;;;;;;;40.25;33.25;;;;;0.69;57.56;100403.53;5024902;28;8868;-76
2021/12/23 03:56:43;;;;;;;;;35.50;33.75;;;;;0.70;57.86;100409.56;4965818;28;8883;-76
2021/12/23 03:59:14;;;;;;;;;42.25;34.50;;;;;0.68;57.43;100404.38;4981596;28;8871;-74
2021/12/23 04:01:43;;;;;;;;;37.75;33.50;;;;;0.75;57.58;100409.00;4981783;28;8879;-75
2021/12/23 04:04:11;;;;;;;;;41.25;34.25;;;;;0.73;57.02;100409.72;4982416;28;8859;-75
2021/12/23 04:06:41;;;;;;;;;36.00;31.75;;;;;0.75;57.26;100409.00;4990327;28;8848;-74
2021/12/23 04:09:10;;;;;;;;;38.25;33.25;;;;;0.77;57.38;100402.25;5016181;28;8844;-75
2021/12/23 04:11:39;;;;;;;;;39.25;34.00;;;;;0.81;57.05;100403.31;5011155;28;8868;-75
2021/12/23 04:14:08;;;;;;;;;25.00;22.25;;;;;0.76;56.87;100400.50;5011725;28;8856;-75
2021/12/23 04:16:36;;;;;;;;;159.75;139.50;;;;;0.76;57.39;100404.75;5027809;28;8999;-74
2021/12/23 04:19:06;;;;;;;;;30.50;29.25;;;;;0.63;57.47;100403.22;5027776;28;11624;-75
2021/12/23 04:21:36;;;;;;;;;56.00;50.00;;;;;0.53;57.67;100399.28;5007859;28;8856;-76
2021/12/23 04:24:07;;;;;;;;;32.75;29.75;;;;;0.56;57.18;100398.56;4991928;28;8966;-74
2021/12/23 04:26:36;;;;;;;;;38.00;32.50;;;;;0.66;57.27;100398.28;4990973;28;8898;-74
2021/12/23 04:29:06;;;;;;;;;37.00;29.00;;;;;0.76;56.89;100397.94;5050210;28;8851;-75
2021/12/23 04:31:36;;;;;;;;;42.50;38.75;;;;;0.80;57.23;100400.69;5067600;28;9009;-75
2021/12/23 04:34:04;;;;;;;;;42.00;37.25;;;;;0.87;57.11;100402.75;5034160;28;8858;-74
2021/12/23 04:36:33;;;;;;;;;38.00;36.50;;;;;0.72;57.06;100396.03;5031676;28;8873;-75
2021/12/23 04:39:04;;;;;;;;;36.25;32.50;;;;;0.78;56.59;100390.31;5030969;28;8874;-74
2021/12/23 04:41:34;;;;;;;;;32.00;30.75;;;;;0.85;56.52;100394.97;5086727;28;8903;-76
2021/12/23 04:44:03;;;;;;;;;42.25;32.50;;;;;0.87;56.65;100392.47;5083658;28;8878;-76
2021/12/23 04:46:32;;;;;;;;;30.25;29.00;;;;;0.84;56.51;100395.78;5070643;28;9001;-74
2021/12/23 04:49:01;;;;;;;;;41.25;36.00;;;;;0.83;56.70;100390.53;5063232;28;8873;-75
2021/12/23 04:51:29;;;;;;;;;46.50;39.50;;;;;0.87;56.84;100395.94;5105751;28;8892;-77
2021/12/23 04:53:58;;;;;;;;;39.00;34.50;;;;;0.77;56.46;100383.41;5116614;27;8975;-74
2021/12/23 04:56:26;;;;;;;;;30.75;26.00;;;;;0.81;56.41;100387.91;5111862;27;8939;-74
2021/12/23 04:58:56;;;;;;;;;32.00;28.25;;;;;0.82;56.98;100397.38;5129091;27;8866;-75
2021/12/23 05:01:29;;;;;;;;;39.00;36.00;;;;;0.81;57.18;100389.59;5112010;27;9605;-75
2021/12/23 05:03:59;;;;;;;;;37.50;32.75;;;;;0.78;58.46;100387.75;5120018;27;8858;-75
2021/12/23 05:06:29;;;;;;;;;38.00;33.50;;;;;0.81;58.29;100387.91;5130823;27;8950;-74
2021/12/23 05:08:57;;;;;;;;;42.25;39.50;;;;;0.88;58.12;100381.41;5094584;27;8873;-74
2021/12/23 05:11:26;;;;;;;;;73.00;59.75;;;;;0.83;58.31;100388.84;5111977;27;8871;-73
2021/12/23 05:13:56;;;;;;;;;107.50;87.25;;;;;0.87;58.79;100380.53;5119419;27;8892;-75
2021/12/23 05:16:25;;;;;;;;;42.00;39.75;;;;;0.78;58.15;100370.66;5125698;27;10462;-74
2021/12/23 05:18:54;;;;;;;;;50.75;45.50;;;;;0.76;58.06;100379.09;5129750;27;8942;-75
2021/12/23 05:21:22;;;;;;;;;42.50;39.50;;;;;0.75;58.15;100373.06;5130512;27;8870;-75
2021/12/23 05:23:51;;;;;;;;;60.75;48.00;;;;;0.71;58.42;100371.13;5085919;28;10459;-74
2021/12/23 05:26:20;;;;;;;;;61.50;51.25;;;;;0.53;59.41;100365.94;5069501;28;8855;-75
2021/12/23 05:28:48;;;;;;;;;70.00;55.75;;;;;0.57;58.56;100372.13;5107075;28;8863;-74
2021/12/23 05:31:18;;;;;;;;;61.25;53.50;;;;;0.51;59.36;100366.63;5071634;28;8869;-74
2021/12/23 05:33:48;;;;;;;;;65.25;53.25;;;;;0.50;58.91;100359.75;5066300;28;8860;-73
2021/12/23 05:36:16;;;;;;;;;71.75;57.00;;;;;0.52;58.81;100364.16;5066528;28;8871;-74
2021/12/23 05:38:45;;;;;;;;;55.75;47.50;;;;;0.43;59.56;100358.53;5052716;28;9644;-74
2021/12/23 05:41:14;;;;;;;;;69.50;56.50;;;;;0.37;59.29;100356.53;5049817;28;8860;-75
2021/12/23 05:43:42;;;;;;;;;68.00;53.75;;;;;0.35;59.51;100359.81;5049954;28;8880;-73
2021/12/23 05:46:11;;;;;;;;;66.50;52.50;;;;;0.33;58.81;100359.72;5050084;28;9002;-75
2021/12/23 05:48:41;;;;;;;;;65.75;52.25;;;;;0.29;59.61;100356.94;5036025;28;9732;-76
2021/12/23 05:51:10;;;;;;;;;77.00;59.75;;;;;0.29;59.44;100354.38;5066233;28;8871;-74
2021/12/23 05:53:39;;;;;;;;;59.50;48.75;;;;;0.27;59.03;100355.97;5049647;28;8996;-74
2021/12/23 05:56:07;;;;;;;;;58.75;49.25;;;;;0.19;59.24;100358.13;5084957;28;8884;-74
2021/12/23 05:58:36;;;;;;;;;58.25;49.75;;;;;0.14;59.21;100352.72;5065737;28;8988;-74
2021/12/23 06:01:06;;;;;;;;;43.50;34.00;;;;;0.13;59.51;100353.56;5065533;28;8864;-74
2021/12/23 06:03:35;;;;;;;;;53.50;44.00;;;;;0.12;59.97;100350.91;5065965;28;8872;-75
2021/12/23 06:06:05;;;;;;;;;49.25;45.00;;;;;0.02;60.43;100344.41;5083735;28;9546;-77
2021/12/23 06:08:39;;;;;;;;;59.50;48.00;;;;;0.03;60.68;100335.88;5099993;27;8964;-76
2021/12/23 06:11:08;;;;;;;;;50.75;47.50;;;;;-0.06;61.31;100336.28;5059936;27;8853;-74
2021/12/23 06:13:37;;;;;;;;;52.50;44.75;;;;;-0.02;60.78;100340.78;5092111;27;8916;-75
2021/12/23 06:16:10;;;;;;;;;70.25;52.00;;;;;-0.04;61.60;100344.94;5065246;28;8834;-75
2021/12/23 06:18:38;;;;;;;;;61.25;49.75;;;;;-0.08;61.40;100339.53;5039076;28;8881;-75
2021/12/23 06:21:09;;;;;;;;;52.00;46.75;;;;;-0.10;61.78;100336.00;5065076;28;8986;-76
2021/12/23 06:23:38;;;;;;;;;59.25;49.75;;;;;-0.09;61.75;100336.09;5052376;28;8851;-76
2021/12/23 06:26:07;;;;;;;;;51.50;45.25;;;;;-0.10;61.52;100339.44;5085576;28;8963;-76
2021/12/23 06:28:35;;;;;;;;;54.00;48.50;;;;;-0.08;61.13;100347.22;5051637;28;8925;-75
2021/12/23 06:31:04;;;;;;;;;61.75;51.75;;;;;-0.03;61.66;100356.06;5072525;28;8833;-76
2021/12/23 06:33:32;;;;;;;;;64.25;50.50;;;;;-0.05;61.16;100350.84;5066051;28;9118;-74
2021/12/23 06:36:01;;;;;;;;;53.75;45.25;;;;;-0.07;61.09;100355.00;5060977;28;8867;-76
2021/12/23 06:38:32;;;;;;;;;57.25;51.25;;;;;-0.03;61.51;100361.19;5048265;28;8944;-75
2021/12/23 06:41:01;;;;;;;;;59.75;49.75;;;;;0.05;60.86;100351.34;5048212;28;8865;-76
2021/12/23 06:43:29;;;;;;;;;23.25;17.00;;;;;0.08;60.61;100343.84;5024803;28;8915;-76
2021/12/23 06:46:00;;;;;;;;;58.00;48.75;;;;;0.24;60.09;100348.09;5005102;28;8863;-75
2021/12/23 06:48:29;;;;;;;;;61.25;50.75;;;;;0.29;59.90;100352.69;5042638;28;9664;-75
2021/12/23 06:50:59;;;;;;;;;69.50;53.00;;;;;0.39;59.54;100359.19;5064692;28;8848;-76
2021/12/23 06:53:28;;;;;;;;;68.00;55.00;;;;;0.41;60.14;100354.13;5014633;28;8852;-76
2021/12/23 06:56:00;;;;;;;;;53.75;46.25;;;;;0.50;59.85;100355.50;5030861;28;8987;-75
2021/12/23 06:58:31;;;;;;;;;66.75;52.00;;;;;0.56;59.26;100354.94;5048008;28;8864;-75
2021/12/23 07:01:00;;;;;;;;;71.00;57.50;;;;;0.65;59.58;100351.97;5031161;28;8945;-76
2021/12/23 07:03:44;;;;;;;;;75.75;59.75;;;;;0.74;59.34;100345.63;5047864;28;8860;-76
2021/12/23 07:06:18;;;;;;;;;67.75;53.50;;;;;0.76;59.05;100338.03;5038681;28;8888;-75
2021/12/23 07:08:46;;;;;;;;;72.25;58.00;;;;;0.73;58.92;100337.84;5030306;28;8871;-75
2021/12/23 07:11:17;;;;;;;;;74.75;57.50;;;;;0.84;58.74;100340.97;5034644;28;9638;-75
2021/12/23 07:13:45;;;;;;;;;74.25;56.00;;;;;0.86;58.40;100339.38;5089424;27;8894;-75
2021/12/23 07:16:14;;;;;;;;;73.25;58.25;;;;;0.93;58.46;100346.59;5107958;27;8882;-76
2021/12/23 07:18:43;;;;;;;;;70.00;58.00;;;;;0.98;58.46;100334.84;5087422;28;9700;-75
2021/12/23 07:21:12;;;;;;;;;76.00;59.00;;;;;0.92;58.39;100348.25;5123846;27;8871;-75
2021/12/23 07:23:40;;;;;;;;;74.50;56.50;;;;;0.92;58.43;100337.09;5099767;28;8854;-75
2021/12/23 07:26:09;;;;;;;;;74.25;57.50;;;;;0.99;58.27;100336.63;5087846;28;8848;-75
2021/12/23 07:28:39;;;;;;;;;69.25;58.00;;;;;1.06;58.37;100322.38;5088718;27;8888;-76
2021/12/23 07:31:08;;;;;;;;;73.50;57.75;;;;;0.98;58.00;100324.56;5089349;27;8907;-75
2021/12/23 07:33:37;;;;;;;;;68.25;56.50;;;;;1.08;58.00;100326.81;5107813;27;8941;-75
2021/12/23 07:36:06;;;;;;;;;69.00;55.25;;;;;1.09;57.77;100315.72;5108079;27;8830;-76
2021/12/23 07:38:35;;;;;;;;;60.75;49.50;;;;;1.21;57.48;100317.13;5108067;27;8833;-74
2021/12/23 07:41:04;;;;;;;;;66.50;55.25;;;;;1.28;57.00;100316.63;5109852;27;8869;-74
2021/12/23 07:43:54;;;;;;;;;73.50;56.00;;;;;1.33;56.66;100313.47;5080775;27;8869;-76
2021/12/23 07:46:26;;;;;;;;;68.50;58.50;;;;;1.32;56.39;100311.75;5113302;27;8849;-75
2021/12/23 07:48:55;;;;;;;;;72.50;54.00;;;;;1.36;57.05;100303.38;5110085;28;8875;-75
2021/12/23 07:51:25;;;;;;;;;68.00;54.75;;;;;1.30;56.95;100297.91;5111809;27;8857;-74
2021/12/23 07:53:54;;;;;;;;;71.25;59.50;;;;;1.41;56.77;100290.72;5113039;27;9017;-75
2021/12/23 07:56:23;;;;;;;;;71.50;58.25;;;;;1.41;56.14;100292.44;5129973;27;8866;-75
2021/12/23 07:58:53;;;;;;;;;63.00;53.00;;;;;1.39;56.47;100282.06;5131755;27;8858;-75
2021/12/23 08:01:21;;;;;;;;;46.25;37.25;;;;;1.38;56.69;100281.97;5061414;27;8850;-75
2021/12/23 08:03:52;;;;;;;;;62.00;52.00;;;;;1.40;56.13;100283.84;5130454;27;8880;-80
2021/12/23 08:06:21;;;;;;;;;74.50;58.00;;;;;1.40;56.62;100277.81;5119948;27;8931;-78
2021/12/23 08:08:49;;;;;;;;;62.00;50.25;;;;;1.44;56.43;100272.91;5075259;27;8876;-75
2021/12/23 08:11:18;;;;;;;;;71.00;56.50;;;;;1.49;56.22;100271.44;5102050;27;8859;-79
2021/12/23 08:13:47;;;;;;;;;65.75;53.50;;;;;1.50;56.24;100265.47;5131854;27;9641;-79
2021/12/23 08:16:16;;;;;;;;;69.00;56.25;;;;;1.57;56.24;100261.53;5110436;28;8861;-82
2021/12/23 08:18:45;;;;;;;;;60.50;51.75;;;;;1.56;56.18;100268.31;5104999;27;8865;-76
2021/12/23 08:21:16;;;;;;;;;71.25;52.00;;;;;1.61;56.34;100263.41;5101334;27;8842;-75
2021/12/23 08:23:45;;;;;;;;;69.25;54.25;;;;;1.65;55.89;100267.00;5108091;28;8859;-79
2021/12/23 08:26:16;;;;;;;;;58.50;47.50;;;;;1.67;55.35;100273.09;5030746;28;8962;-77
2021/12/23 08:28:45;;;;;;;;;60.50;49.00;;;;;1.75;55.40;100267.50;5047796;28;8862;-78
2021/12/23 08:31:14;;;;;;;;;51.50;42.75;;;;;1.79;55.49;100270.22;5030997;28;8874;-77
2021/12/23 08:33:42;;;;;;;;;67.50;54.25;;;;;1.89;54.83;100254.38;5014592;28;8882;-79
2021/12/23 08:36:11;;;;;;;;;71.50;53.75;;;;;2.02;54.77;100260.97;5030744;28;8869;-78
2021/12/23 08:38:42;;;;;;;;;67.25;51.75;;;;;2.17;54.00;100268.50;5030348;28;8953;-80
2021/12/23 08:41:11;;;;;;;;;43.00;36.75;;;;;2.38;53.43;100273.72;5030506;28;8892;-77
2021/12/23 08:43:40;;;;;;;;;68.50;55.50;;;;;2.33;53.61;100258.97;4997484;28;8842;-77
2021/12/23 08:46:08;;;;;;;;;65.75;55.75;;;;;2.45;53.08;100243.16;5047387;28;8874;-78
2021/12/23 08:48:37;;;;;;;;;60.75;51.75;;;;;2.44;53.34;100238.84;5047171;28;8865;-76
2021/12/23 08:51:06;;;;;;;;;70.00;58.00;;;;;2.42;53.60;100244.72;5046872;28;8897;-79
2021/12/23 08:53:35;;;;;;;;;69.00;54.25;;;;;2.54;53.33;100251.28;4995047;28;9018;-79
2021/12/23 08:56:08;;;;;;;;;69.50;55.75;;;;;2.66;53.65;100250.94;5019813;28;8865;-76
2021/12/23 08:58:37;;;;;;;;;68.00;50.25;;;;;2.67;53.67;100239.81;5110264;27;8852;-76
2021/12/23 09:01:06;;;;;;;;;61.25;51.00;;;;;2.84;52.55;100237.09;5108127;27;8859;-79
2021/12/23 09:03:35;;;;;;;;;73.25;56.00;;;;;2.79;52.86;100242.03;5108595;27;9570;-79
2021/12/23 09:06:05;;;;;;;;;62.50;54.75;;;;;2.63;53.42;100235.38;5112969;27;8861;-78
2021/12/23 09:08:34;;;;;;;;;71.00;56.25;;;;;2.76;53.24;100230.72;5101487;27;8977;-77
2021/12/23 09:11:05;;;;;;;;;71.75;55.25;;;;;2.70;53.92;100219.38;5112129;27;8857;-77
2021/12/23 09:13:34;;;;;;;;;75.25;56.25;;;;;2.76;52.94;100223.00;5122703;27;9592;-77
2021/12/23 09:16:03;;;;;;;;;73.50;58.25;;;;;2.61;53.62;100224.13;5124424;27;8862;-76
2021/12/23 09:18:33;;;;;;;;;66.50;51.50;;;;;2.60;53.98;100209.47;5114960;27;9704;-76
2021/12/23 09:21:04;;;;;;;;;65.75;50.00;;;;;2.58;54.17;100213.69;5130240;27;8866;-78
2021/12/23 09:23:53;;;;;;;;;58.75;48.25;;;;;2.59;53.86;100212.88;5112937;27;8876;-78
2021/12/23 09:26:24;;;;;;;;;73.75;59.25;;;;;2.72;53.82;100206.53;5070037;28;8862;-77
2021/12/23 09:28:59;;;;;;;;;73.00;56.50;;;;;2.73;53.25;100192.84;5069398;28;8877;-77
2021/12/23 09:34:14;;;;;;;;;77.75;61.50;;;;;2.73;53.10;100196.31;5052990;28;8882;-77
2021/12/23 09:36:43;;;;;;;;;72.75;61.25;;;;;2.80;53.11;100183.66;5069958;28;8903;-77
2021/12/23 09:39:12;;;;;;;;;69.75;57.00;;;;;3.03;52.68;100180.34;5086001;28;8881;-77
2021/12/23 09:41:45;;;;;;;;;63.50;52.25;;;;;3.12;52.07;100162.66;5068806;28;8866;-79
2021/12/23 09:44:15;;;;;;;;;69.50;55.75;;;;;3.03;52.61;100154.56;5068954;28;8861;-77
2021/12/23 09:46:44;;;;;;;;;45.00;35.75;;;;;3.10;52.35;100148.84;5067949;28;8865;-77
2021/12/23 09:49:14;;;;;;;;;71.25;54.00;;;;;3.12;52.13;100149.78;5052052;28;8858;-75
2021/12/23 09:51:44;;;;;;;;;67.00;54.25;;;;;3.17;52.10;100133.63;5048989;28;9727;-76
2021/12/23 09:54:16;;;;;;;;;67.50;53.50;;;;;3.12;51.92;100125.72;5043257;28;8863;-79
2021/12/23 09:56:47;;;;;;;;;58.00;51.25;;;;;3.11;52.14;100132.56;5063308;28;8979;-77
2021/12/23 09:59:16;;;;;;;;;61.50;51.00;;;;;3.19;51.83;100163.78;5047044;28;8989;-80
2021/12/23 10:01:44;;;;;;;;;63.75;51.25;;;;;3.38;51.39;100133.56;5031133;28;8927;-78
2021/12/23 10:04:14;;;;;;;;;66.75;52.00;;;;;3.48;51.03;100122.78;5048953;28;8855;-80
2021/12/23 10:06:42;;;;;;;;;56.00;48.25;;;;;3.56;50.71;100123.06;5064668;28;8891;-76
2021/12/23 10:09:13;;;;;;;;;62.00;51.25;;;;;3.63;50.50;100117.28;5031646;28;8833;-76
2021/12/23 10:12:11;;;;;;;;;50.25;46.00;;;;;3.66;50.35;100122.56;5031411;28;8962;-79
2021/12/23 10:31:47;;;;;;;;;47.75;42.75;;;;;3.65;50.94;100044.34;4912557;29;8917;-79
2021/12/23 10:37:18;;;;;;;;;46.75;43.25;;;;;3.93;50.06;100073.66;4933634;28;8994;-79
2021/12/23 10:39:50;;;;;;;;;48.00;42.00;;;;;4.05;49.36;100075.81;4950357;28;9620;-76
2021/12/23 10:42:21;;;;;;;;;45.25;40.50;;;;;4.27;49.02;100070.53;4933095;28;8916;-77
2021/12/23 10:44:53;;;;;;;;;44.25;42.50;;;;;4.21;49.21;100059.97;4977176;28;8888;-76
2021/12/23 10:47:39;;;;;;;;;41.50;34.25;;;;;4.28;49.01;100064.53;4988876;28;8962;-75
2021/12/23 10:50:21;;;;;;;;;45.00;39.50;;;;;4.40;48.60;100050.28;4973430;28;8925;-78
2021/12/23 10:52:53;;;;;;;;;50.00;44.75;;;;;4.47;48.69;100045.34;5077503;28;8877;-77
2021/12/23 10:58:15;;;;;;;;;46.50;43.00;;;;;4.51;47.98;100027.38;5110370;27;8851;-76
2021/12/23 11:00:49;;;;;;;;;51.25;43.75;;;;;4.54;48.52;100018.03;5112391;27;8848;-77
2021/12/23 11:03:25;;;;;;;;;52.25;44.75;;;;;4.57;47.97;100012.06;5057592;28;8868;-78
2021/12/23 11:06:05;;;;;;;;;49.25;43.50;;;;;4.57;48.34;99997.44;5045632;28;8865;-77
2021/12/23 11:08:44;;;;;;;;;52.25;45.50;;;;;4.54;48.25;99999.06;5072798;28;8969;-78
2021/12/23 11:11:38;;;;;;;;;42.00;39.50;;;;;4.51;48.38;99988.66;5050557;28;8858;-77
2021/12/23 11:29:06;;;;;;;;;54.50;46.00;;;;;4.68;48.47;99957.31;5067488;28;8842;-78
2021/12/23 11:37:37;;;;;;;;;48.50;43.75;;;;;4.72;48.44;99940.22;5113051;27;8850;-76
2021/12/23 11:40:23;;;;;;;;;47.25;39.25;;;;;4.74;48.37;99935.97;5109529;27;8911;-76
2021/12/23 11:43:25;;;;;;;;;40.50;38.25;;;;;4.68;48.35;99928.91;5111831;28;8837;-75
2021/12/23 11:45:53;;;;;;;;;48.25;44.75;;;;;4.67;48.55;99927.16;5069273;27;8885;-78
2021/12/23 11:48:22;;;;;;;;;51.00;45.50;;;;;4.64;48.36;99932.22;5051823;28;8865;-77
2021/12/23 11:51:06;;;;;;;;;51.50;47.25;;;;;4.61;48.36;99919.25;5104316;28;8870;-76
2021/12/23 11:53:36;;;;;;;;;54.50;46.75;;;;;4.60;48.78;99914.03;5061652;28;8855;-77
2021/12/23 11:56:07;;;;;;;;;52.50;44.00;;;;;4.42;49.53;99906.59;5047013;28;8844;-77
2021/12/23 11:58:42;;;;;;;;;60.75;51.75;;;;;4.53;48.95;99905.22;5064079;28;8818;-76
2021/12/23 12:01:15;;;;;;;;;69.50;55.25;;;;;4.52;49.50;99890.56;5022264;28;9749;-78
2021/12/23 12:03:54;;;;;;;;;60.50;48.75;;;;;4.44;49.75;99895.50;5061369;28;8837;-77
2021/12/23 12:06:26;;;;;;;;;54.50;45.75;;;;;4.39;50.13;99897.06;4997928;28;8881;-77
2021/12/23 12:08:57;;;;;;;;;61.50;49.75;;;;;4.44;50.13;99889.44;5047463;28;8975;-76
2021/12/23 12:11:26;;;;;;;;;62.25;49.75;;;;;4.45;49.75;99888.63;5044380;28;8858;-77
2021/12/23 12:13:55;;;;;;;;;57.50;46.00;;;;;4.35;49.95;99874.56;5046456;28;9632;-76
2021/12/23 12:16:34;;;;;;;;;56.25;47.75;;;;;4.26;50.17;99864.84;5046849;28;8844;-77
2021/12/23 12:19:06;;;;;;;;;64.75;54.75;;;;;4.18;50.97;99843.09;5030373;28;8876;-77
2021/12/23 12:21:44;;;;;;;;;52.50;45.75;;;;;4.16;51.53;99839.59;4982833;28;8844;-76
2021/12/23 12:24:17;;;;;;;;;67.25;53.00;;;;;4.08;51.46;99841.06;5006097;28;8856;-77
2021/12/23 12:26:55;;;;;;;;;66.00;51.00;;;;;4.11;51.35;99841.16;5044988;28;9608;-76
2021/12/23 12:29:35;;;;;;;;;58.00;46.25;;;;;4.16;51.69;99857.66;5051915;28;8841;-76